createdAt,value
2022-08-26T00:00:12.405Z,13.23
2022-08-26T00:02:39.875Z,20.17
2022-08-26T00:05:09.837Z,19.70
2022-08-26T00:07:36.845Z,13.53
2022-08-26T00:10:07.686Z,24.60
2022-08-26T00:12:38.046Z,25.67
2022-08-26T00:15:09.244Z,18.13
2022-08-26T00:17:40.204Z,28.07
2022-08-26T00:20:10.464Z,45.47
2022-08-26T00:22:40.157Z,23.57
2022-08-26T00:25:08.459Z,22.03
2022-08-26T00:27:39.645Z,27.23
2022-08-26T00:32:38.203Z,17.20
2022-08-26T00:35:07.811Z,19.63
2022-08-26T00:37:37.549Z,19.23
2022-08-26T00:40:11.332Z,19.67
2022-08-26T00:42:46.130Z,30.63
2022-08-26T00:45:18.243Z,17.20
2022-08-26T00:47:53.446Z,24.87
2022-08-26T00:50:27.033Z,26.20
2022-08-26T00:52:55.958Z,21.50
2022-08-26T00:55:39.613Z,14.33
2022-08-26T00:58:09.683Z,19.20
2022-08-26T01:00:39.173Z,44.50
2022-08-26T01:03:11.649Z,28.10
2022-08-26T01:05:43.673Z,24.70
2022-08-26T01:08:11.123Z,21.07
2022-08-26T01:10:39.029Z,18.47
2022-08-26T01:13:11.270Z,21.80
2022-08-26T01:15:47.348Z,20.83
2022-08-26T01:18:15.846Z,19.60
2022-08-26T01:21:11.505Z,35.63
2022-08-26T01:23:47.037Z,45.77
2022-08-26T01:26:29.895Z,19.33
2022-08-26T01:29:01.268Z,20.13
2022-08-26T01:31:38.374Z,19.53
2022-08-26T01:34:17.820Z,22.53
2022-08-26T01:36:54.745Z,23.53
2022-08-26T01:39:22.025Z,22.13
2022-08-26T01:41:53.687Z,19.83
2022-08-26T01:44:25.829Z,24.93
2022-08-26T01:46:53.853Z,24.33
2022-08-26T01:49:23.183Z,25.20
2022-08-26T01:51:58.412Z,30.73
2022-08-26T01:54:26.623Z,26.10
2022-08-26T01:56:54.975Z,27.57
2022-08-26T01:59:24.714Z,21.47
2022-08-26T02:01:52.731Z,19.20
2022-08-26T02:04:37.518Z,16.67
2022-08-26T02:07:11.156Z,18.00
2022-08-26T02:09:41.232Z,29.77
2022-08-26T02:12:11.818Z,38.77
2022-08-26T02:14:50.065Z,19.33
2022-08-26T02:17:26.167Z,23.23
2022-08-26T02:19:54.064Z,27.47
2022-08-26T02:22:24.643Z,20.70
2022-08-26T02:25:15.029Z,23.67
2022-08-26T02:27:42.642Z,15.60
2022-08-26T02:30:22.042Z,17.97
2022-08-26T02:32:49.813Z,16.30
2022-08-26T02:35:20.226Z,24.60
2022-08-26T02:37:49.523Z,21.90
2022-08-26T02:40:24.197Z,15.70
2022-08-26T02:42:52.982Z,26.30
2022-08-26T02:45:23.975Z,22.07
2022-08-26T02:47:54.436Z,20.37
2022-08-26T02:50:26.725Z,13.10
2022-08-26T02:52:53.668Z,29.53
2022-08-26T02:55:20.820Z,20.30
2022-08-26T02:57:52.411Z,21.77
2022-08-26T03:00:19.589Z,19.90
2022-08-26T03:02:48.763Z,21.67
2022-08-26T03:05:17.889Z,21.07
2022-08-26T03:07:45.226Z,16.53
2022-08-26T03:10:14.808Z,13.80
2022-08-26T03:12:42.983Z,16.03
2022-08-26T03:15:17.851Z,24.83
2022-08-26T03:17:47.597Z,23.03
2022-08-26T03:20:17.333Z,19.27
2022-08-26T03:22:51.403Z,17.80
2022-08-26T03:25:18.307Z,24.23
2022-08-26T03:27:45.733Z,19.43
2022-08-26T03:30:35.692Z,27.23
2022-08-26T03:33:03.915Z,19.30
2022-08-26T03:35:32.500Z,23.53
2022-08-26T03:37:59.950Z,12.90
2022-08-26T03:40:34.644Z,22.00
2022-08-26T03:43:05.181Z,23.90
2022-08-26T03:45:33.156Z,39.90
2022-08-26T03:48:05.160Z,25.07
2022-08-26T03:50:34.242Z,14.90
2022-08-26T03:53:04.702Z,19.90
2022-08-26T03:55:34.355Z,21.67
2022-08-26T03:58:04.008Z,20.57
2022-08-26T04:00:31.215Z,33.00
2022-08-26T04:02:58.274Z,25.63
2022-08-26T04:05:25.374Z,32.50
2022-08-26T04:07:52.349Z,20.90
2022-08-26T04:10:28.675Z,32.03
2022-08-26T04:13:02.409Z,30.93
2022-08-26T04:15:29.490Z,42.27
2022-08-26T04:18:00.940Z,27.27
2022-08-26T04:20:28.022Z,20.40
2022-08-26T04:22:55.081Z,71.90
2022-08-26T04:25:24.548Z,21.37
2022-08-26T04:27:53.715Z,30.00
2022-08-26T04:30:21.258Z,32.27
2022-08-26T04:32:49.116Z,25.83
2022-08-26T04:35:16.241Z,24.00
2022-08-26T04:37:44.018Z,17.70
2022-08-26T04:40:12.161Z,20.23
2022-08-26T04:42:41.122Z,21.13
2022-08-26T04:45:09.901Z,21.53
2022-08-26T04:47:40.435Z,26.13
2022-08-26T04:50:08.688Z,23.63
2022-08-26T04:52:39.958Z,29.33
2022-08-26T04:55:08.767Z,26.63
2022-08-26T04:57:36.184Z,21.00
2022-08-26T05:00:06.939Z,24.53
2022-08-26T05:02:34.240Z,29.77
2022-08-26T05:05:04.348Z,16.03
2022-08-26T05:07:31.530Z,19.90
2022-08-26T05:09:58.911Z,21.03
2022-08-26T05:12:25.860Z,23.57
2022-08-26T05:14:53.411Z,27.60
2022-08-26T05:17:20.562Z,23.40
2022-08-26T05:19:52.590Z,26.27
2022-08-26T05:22:22.088Z,34.63
2022-08-26T05:24:52.168Z,23.20
2022-08-26T05:27:19.504Z,27.10
2022-08-26T05:29:46.497Z,27.87
2022-08-26T05:32:13.435Z,24.17
2022-08-26T05:34:40.939Z,26.17
2022-08-26T05:37:13.723Z,31.20
2022-08-26T05:39:51.212Z,32.67
2022-08-26T05:42:22.875Z,18.00
2022-08-26T05:44:56.045Z,37.80
2022-08-26T05:47:24.276Z,24.07
2022-08-26T05:49:51.818Z,30.80
2022-08-26T05:52:19.512Z,27.93
2022-08-26T05:54:49.030Z,32.30
2022-08-26T05:57:18.673Z,32.43
2022-08-26T05:59:52.274Z,35.40
2022-08-26T06:02:22.124Z,19.17
2022-08-26T06:04:55.247Z,24.27
2022-08-26T06:07:46.714Z,38.03
2022-08-26T06:10:31.448Z,29.33
2022-08-26T06:13:09.426Z,25.60
2022-08-26T06:15:50.426Z,23.50
2022-08-26T06:18:25.275Z,19.83
2022-08-26T06:20:57.725Z,15.80
2022-08-26T06:23:46.331Z,28.97
2022-08-26T06:26:16.214Z,24.00
2022-08-26T06:28:45.567Z,40.70
2022-08-26T06:31:17.928Z,33.80
2022-08-26T06:33:47.572Z,30.97
2022-08-26T06:36:34.886Z,32.10
2022-08-26T06:39:10.803Z,20.93
2022-08-26T06:41:43.672Z,39.00
2022-08-26T06:44:13.266Z,24.27
2022-08-26T06:46:41.637Z,34.47
2022-08-26T06:49:12.903Z,21.53
2022-08-26T06:51:40.973Z,43.13
2022-08-26T06:54:08.959Z,24.43
2022-08-26T06:56:42.689Z,41.73
2022-08-26T06:59:12.279Z,30.97
2022-08-26T07:01:46.692Z,27.77
2022-08-26T07:04:22.006Z,26.73
2022-08-26T07:06:53.737Z,32.73
2022-08-26T07:09:30.419Z,41.70
2022-08-26T07:11:57.557Z,47.73
2022-08-26T07:14:27.487Z,40.60
2022-08-26T07:16:55.007Z,31.33
2022-08-26T07:19:30.418Z,29.43
2022-08-26T07:22:04.240Z,33.53
2022-08-26T07:24:40.296Z,26.93
2022-08-26T07:27:16.049Z,38.10
2022-08-26T07:29:46.403Z,26.73
2022-08-26T07:32:22.983Z,25.43
2022-08-26T07:34:53.054Z,30.00
2022-08-26T07:37:20.183Z,25.97
2022-08-26T07:39:49.269Z,30.27
2022-08-26T07:42:20.469Z,26.63
2022-08-26T07:44:50.156Z,32.33
2022-08-26T07:47:24.770Z,35.73
2022-08-26T07:49:54.321Z,27.00
2022-08-26T07:52:27.070Z,38.23
2022-08-26T07:55:01.338Z,36.37
2022-08-26T07:57:32.290Z,24.23
2022-08-26T08:00:02.488Z,27.60
2022-08-26T08:02:32.113Z,31.23
2022-08-26T08:05:01.709Z,22.20
2022-08-26T08:07:44.444Z,34.13
2022-08-26T08:10:21.045Z,33.43
2022-08-26T08:12:52.638Z,28.23
2022-08-26T08:15:24.938Z,30.13
2022-08-26T08:17:52.574Z,27.03
2022-08-26T08:20:20.941Z,15.33
2022-08-26T08:22:48.350Z,19.90
2022-08-26T08:25:15.297Z,31.87
2022-08-26T08:27:45.894Z,16.27
2022-08-26T08:30:15.459Z,21.17
2022-08-26T08:32:50.594Z,21.70
2022-08-26T08:35:21.160Z,19.90
2022-08-26T08:37:50.826Z,28.37
2022-08-26T08:40:18.422Z,22.47
2022-08-26T08:42:57.790Z,21.53
2022-08-26T08:45:34.494Z,21.43
2022-08-26T08:48:16.252Z,28.40
2022-08-26T08:50:48.085Z,22.50
2022-08-26T08:53:31.977Z,26.47
2022-08-26T08:56:17.467Z,21.30
2022-08-26T08:58:59.894Z,17.17
2022-08-26T09:01:47.565Z,28.53
2022-08-26T09:04:50.356Z,23.80
2022-08-26T09:07:52.658Z,14.53
2022-08-26T09:10:36.233Z,20.13
2022-08-26T09:13:16.359Z,34.73
2022-08-26T09:16:11.107Z,36.57
2022-08-26T09:18:56.228Z,48.60
2022-08-26T09:21:27.418Z,33.27
2022-08-26T09:23:56.689Z,27.30
2022-08-26T09:26:30.970Z,19.40
2022-08-26T09:29:10.428Z,27.30
2022-08-26T09:31:42.195Z,34.50
2022-08-26T09:34:23.128Z,18.87
2022-08-26T09:36:58.987Z,45.73
2022-08-26T09:39:40.723Z,57.53
2022-08-26T09:42:25.487Z,32.13
2022-08-26T09:45:10.420Z,43.57
2022-08-26T09:47:53.246Z,42.37
2022-08-26T09:51:08.148Z,33.33
2022-08-26T09:53:50.695Z,20.70
2022-08-26T09:56:32.658Z,53.00
2022-08-26T09:59:06.576Z,51.80
2022-08-26T10:01:46.923Z,23.80
2022-08-26T10:04:14.843Z,47.47
2022-08-26T10:06:57.558Z,22.50
2022-08-26T10:09:26.052Z,48.23
2022-08-26T10:12:04.311Z,36.13
2022-08-26T10:14:38.096Z,36.77
2022-08-26T10:17:13.593Z,30.10
2022-08-26T10:19:57.046Z,36.40
2022-08-26T10:22:45.751Z,36.37
2022-08-26T10:25:24.674Z,44.10
2022-08-26T10:28:09.891Z,41.10
2022-08-26T10:30:51.415Z,46.83
2022-08-26T10:33:21.578Z,36.10
2022-08-26T10:36:03.978Z,38.57
2022-08-26T10:38:41.347Z,34.77
2022-08-26T10:41:20.684Z,44.77
2022-08-26T10:43:56.406Z,43.43
2022-08-26T10:46:33.430Z,65.13
2022-08-26T10:49:11.221Z,54.73
2022-08-26T10:51:54.692Z,43.90
2022-08-26T10:55:01.443Z,31.90
2022-08-26T10:58:29.199Z,35.57
2022-08-26T11:01:40.861Z,40.77
2022-08-26T11:04:45.746Z,36.90
2022-08-26T11:07:39.519Z,42.07
2022-08-26T11:10:17.449Z,27.67
2022-08-26T11:12:54.028Z,45.00
2022-08-26T11:15:37.309Z,44.20
2022-08-26T11:18:10.992Z,60.33
2022-08-26T11:20:48.961Z,26.93
2022-08-26T11:23:27.233Z,41.43
2022-08-26T11:26:11.707Z,50.73
2022-08-26T11:28:50.815Z,35.93
2022-08-26T11:31:19.040Z,51.20
2022-08-26T11:34:03.878Z,38.97
2022-08-26T11:36:47.838Z,25.97
2022-08-26T11:39:36.955Z,31.57
2022-08-26T11:42:44.393Z,27.37
2022-08-26T11:45:37.763Z,32.63
2022-08-26T11:48:28.978Z,25.00
2022-08-26T11:51:23.151Z,42.40
2022-08-26T11:53:53.811Z,36.70
2022-08-26T11:56:33.110Z,37.37
2022-08-26T11:59:11.032Z,36.43
2022-08-26T12:01:49.091Z,33.50
2022-08-26T12:04:34.859Z,59.13
2022-08-26T12:07:04.835Z,20.73
2022-08-26T12:09:51.734Z,36.20
2022-08-26T12:12:40.289Z,29.47
2022-08-26T12:15:17.609Z,33.80
2022-08-26T12:17:53.401Z,19.43
2022-08-26T12:20:46.253Z,24.47
2022-08-26T12:23:50.380Z,33.13
2022-08-26T12:26:33.425Z,26.67
2022-08-26T12:29:20.243Z,31.33
2022-08-26T12:32:15.888Z,30.33
2022-08-26T12:34:50.163Z,19.90
2022-08-26T12:37:21.946Z,22.50
2022-08-26T12:39:49.308Z,40.80
2022-08-26T12:42:36.476Z,20.93
2022-08-26T12:45:06.790Z,41.50
2022-08-26T12:47:44.000Z,38.47
2022-08-26T12:50:37.067Z,34.20
2022-08-26T12:53:18.368Z,21.13
2022-08-26T12:55:51.319Z,25.30
2022-08-26T12:58:32.151Z,35.10
2022-08-26T13:01:22.348Z,40.33
2022-08-26T13:03:52.140Z,33.93
2022-08-26T13:06:22.434Z,24.27
2022-08-26T13:08:49.324Z,21.80
2022-08-26T13:11:28.247Z,31.83
2022-08-26T13:14:07.405Z,35.30
2022-08-26T13:16:39.615Z,38.20
2022-08-26T13:19:12.842Z,44.23
2022-08-26T13:21:55.542Z,36.57
2022-08-26T13:24:42.379Z,47.67
2022-08-26T13:27:20.479Z,37.13
2022-08-26T13:29:50.510Z,41.27
2022-08-26T13:32:22.449Z,33.97
2022-08-26T13:34:55.472Z,33.43
2022-08-26T13:37:34.597Z,32.07
2022-08-26T13:40:05.536Z,38.67
2022-08-26T13:42:59.528Z,41.03
2022-08-26T13:45:27.764Z,43.90
2022-08-26T13:51:34.102Z,33.47
2022-08-26T13:54:01.351Z,42.20
2022-08-26T13:56:31.172Z,33.57
2022-08-26T13:59:04.782Z,31.63
2022-08-26T14:01:32.825Z,34.47
2022-08-26T14:03:59.828Z,28.20
2022-08-26T14:06:27.202Z,44.63
2022-08-26T14:08:56.912Z,28.57
2022-08-26T14:11:25.016Z,36.03
2022-08-26T14:13:52.541Z,71.77
2022-08-26T14:16:38.917Z,38.83
2022-08-26T14:19:25.961Z,27.90
2022-08-26T14:21:53.256Z,29.27
2022-08-26T14:24:22.466Z,29.67
2022-08-26T14:26:49.413Z,27.27
2022-08-26T14:29:16.911Z,38.00
2022-08-26T14:31:46.761Z,39.93
2022-08-26T14:34:16.493Z,35.50
2022-08-26T14:36:46.448Z,39.17
2022-08-26T14:39:14.710Z,27.13
2022-08-26T14:41:54.617Z,27.00
2022-08-26T14:44:31.268Z,27.63
2022-08-26T14:47:01.715Z,31.70
2022-08-26T14:49:35.949Z,40.23
2022-08-26T14:52:06.349Z,54.60
2022-08-26T14:54:33.704Z,27.40
2022-08-26T14:57:08.784Z,45.87
2022-08-26T14:59:43.348Z,52.83
2022-08-26T15:02:32.476Z,33.50
2022-08-26T15:05:04.505Z,40.63
2022-08-26T15:07:34.024Z,38.80
2022-08-26T15:10:01.038Z,32.83
2022-08-26T15:12:28.013Z,35.00
2022-08-26T15:14:54.966Z,21.50
2022-08-26T15:17:21.970Z,19.50
2022-08-26T15:19:51.175Z,16.20
2022-08-26T15:22:29.784Z,26.00
2022-08-26T15:24:59.716Z,24.70
2022-08-26T15:27:26.817Z,30.70
2022-08-26T15:29:54.249Z,20.27
2022-08-26T15:32:21.312Z,17.03
2022-08-26T15:34:53.066Z,25.17
2022-08-26T15:37:20.103Z,26.50
2022-08-26T15:39:47.955Z,19.80
2022-08-26T15:42:15.417Z,14.60
2022-08-26T15:44:48.970Z,18.67
2022-08-26T15:47:16.227Z,22.93
2022-08-26T15:49:43.243Z,18.03
2022-08-26T15:52:10.645Z,22.90
2022-08-26T15:54:40.130Z,32.43
2022-08-26T15:57:15.317Z,30.40
2022-08-26T15:59:46.464Z,19.50
2022-08-26T16:02:13.625Z,23.30
2022-08-26T16:04:40.691Z,28.00
2022-08-26T16:07:10.161Z,19.13
2022-08-26T16:09:39.412Z,22.20
2022-08-26T16:12:09.000Z,28.30
2022-08-26T16:14:38.896Z,25.00
2022-08-26T16:17:08.387Z,18.27
2022-08-26T16:19:35.287Z,10.67
2022-08-26T16:22:09.048Z,20.50
2022-08-26T16:24:37.216Z,11.20
2022-08-26T16:27:04.571Z,10.20
2022-08-26T16:29:32.147Z,13.10
2022-08-26T16:31:59.219Z,23.00
2022-08-26T16:34:30.764Z,20.07
2022-08-26T16:36:57.873Z,12.30
2022-08-26T16:39:24.743Z,16.50
2022-08-26T16:41:51.679Z,14.70
2022-08-26T16:44:18.581Z,17.60
2022-08-26T16:46:45.742Z,12.77
2022-08-26T16:49:12.713Z,10.67
2022-08-26T16:51:41.988Z,6.63
2022-08-26T16:54:11.253Z,15.87
2022-08-26T16:56:38.338Z,6.10
2022-08-26T16:59:09.519Z,6.50
2022-08-26T17:01:36.473Z,11.10
2022-08-26T17:04:04.045Z,7.00
2022-08-26T17:06:30.960Z,5.40
2022-08-26T17:08:58.045Z,7.90
2022-08-26T17:11:25.029Z,6.30
2022-08-26T17:13:52.003Z,6.90
2022-08-26T17:16:22.254Z,11.53
2022-08-26T17:18:51.504Z,8.83
2022-08-26T17:21:19.494Z,16.43
2022-08-26T17:23:46.625Z,11.00
2022-08-26T17:26:13.755Z,8.27
2022-08-26T17:28:41.205Z,14.70
2022-08-26T17:31:13.335Z,19.00
2022-08-26T17:33:40.857Z,12.23
2022-08-26T17:36:11.945Z,8.83
2022-08-26T17:38:39.269Z,27.73
2022-08-26T17:41:14.163Z,12.17
2022-08-26T17:43:41.504Z,17.03
2022-08-26T17:46:11.249Z,15.17
2022-08-26T17:48:42.215Z,16.33
2022-08-26T17:51:14.190Z,7.00
2022-08-26T17:53:41.742Z,7.53
2022-08-26T17:56:12.261Z,8.33
2022-08-26T17:58:41.320Z,7.23
2022-08-26T18:01:19.231Z,6.10
2022-08-26T18:03:50.980Z,10.53
2022-08-26T18:06:19.694Z,7.13
2022-08-26T18:08:46.701Z,10.10
2022-08-26T18:11:22.715Z,9.60
2022-08-26T18:13:58.718Z,8.47
2022-08-26T18:16:33.316Z,7.20
2022-08-26T18:19:03.461Z,8.13
2022-08-26T18:21:33.974Z,10.30
2022-08-26T18:24:05.745Z,13.70
2022-08-26T18:26:41.417Z,8.13
2022-08-26T18:29:12.655Z,7.10
2022-08-26T18:31:47.108Z,16.60
2022-08-26T18:34:18.680Z,11.33
2022-08-26T18:36:49.891Z,7.93
2022-08-26T18:39:22.156Z,8.13
2022-08-26T18:41:55.689Z,5.23
2022-08-26T18:44:25.997Z,12.00
2022-08-26T18:46:53.403Z,6.77
2022-08-26T18:49:24.408Z,6.00
2022-08-26T18:51:54.936Z,7.73
2022-08-26T18:54:25.121Z,7.43
2022-08-26T18:56:52.104Z,10.07
2022-08-26T18:59:29.595Z,6.33
2022-08-26T19:02:00.730Z,8.67
2022-08-26T19:04:28.011Z,14.57
2022-08-26T19:06:57.399Z,6.20
2022-08-26T19:09:26.410Z,13.03
2022-08-26T19:14:28.713Z,9.83
2022-08-26T19:16:55.922Z,7.43
2022-08-26T19:19:25.869Z,9.47
2022-08-26T19:21:55.253Z,10.83
2022-08-26T19:24:22.459Z,10.00
2022-08-26T19:26:57.951Z,11.10
2022-08-26T19:29:31.593Z,13.87
2022-08-26T19:31:59.774Z,9.33
2022-08-26T19:34:35.552Z,11.80
2022-08-26T19:37:07.319Z,15.53
2022-08-26T19:39:37.850Z,7.63
2022-08-26T19:42:06.582Z,10.97
2022-08-26T19:44:52.950Z,11.00
2022-08-26T19:47:20.308Z,9.27
2022-08-26T19:49:56.873Z,10.27
2022-08-26T19:52:29.905Z,6.70
2022-08-26T19:54:59.540Z,9.00
2022-08-26T19:57:27.058Z,12.73
2022-08-26T19:59:57.069Z,9.23
2022-08-26T20:02:28.466Z,10.23
2022-08-26T20:04:58.316Z,23.23
2022-08-26T20:07:26.049Z,10.83
2022-08-26T20:09:55.848Z,12.63
2022-08-26T20:12:23.051Z,13.13
2022-08-26T20:14:50.037Z,14.93
2022-08-26T20:17:17.101Z,10.70
2022-08-26T20:20:02.469Z,16.43
2022-08-26T20:22:29.751Z,13.30
2022-08-26T20:25:01.366Z,16.47
2022-08-26T20:27:37.988Z,14.73
2022-08-26T20:30:08.757Z,8.70
2022-08-26T20:32:43.999Z,11.67
2022-08-26T20:35:19.786Z,10.30
2022-08-26T20:37:51.324Z,13.17
2022-08-26T20:40:25.212Z,13.33
2022-08-26T20:42:56.284Z,18.93
2022-08-26T20:45:28.836Z,14.03
2022-08-26T20:47:56.413Z,11.03
2022-08-26T20:50:23.364Z,9.90
2022-08-26T20:52:54.416Z,12.03
2022-08-26T20:55:23.837Z,13.90
2022-08-26T20:57:52.635Z,10.40
2022-08-26T21:00:24.578Z,28.07
2022-08-26T21:02:55.195Z,17.17
2022-08-26T21:05:22.884Z,12.67
2022-08-26T21:07:52.990Z,14.80
2022-08-26T21:10:21.059Z,18.20
2022-08-26T21:12:58.804Z,16.57
2022-08-26T21:15:29.663Z,15.93
2022-08-26T21:18:03.234Z,20.00
2022-08-26T21:20:35.976Z,17.10
2022-08-26T21:23:06.282Z,13.03
2022-08-26T21:25:33.195Z,20.73
2022-08-26T21:28:00.197Z,18.47
2022-08-26T21:30:27.647Z,12.83
2022-08-26T21:32:54.601Z,32.23
2022-08-26T21:35:21.529Z,25.50
2022-08-26T21:37:48.431Z,22.13
2022-08-26T21:40:15.445Z,37.27
2022-08-26T21:42:42.592Z,22.37
2022-08-26T21:45:12.814Z,28.47
2022-08-26T21:47:40.640Z,23.90
2022-08-26T21:50:10.867Z,25.57
2022-08-26T21:52:38.314Z,21.97
2022-08-26T21:55:09.123Z,25.33
2022-08-26T21:57:38.648Z,32.13
2022-08-26T22:00:09.203Z,19.40
2022-08-26T22:02:38.757Z,26.67
2022-08-26T22:05:06.202Z,31.17
2022-08-26T22:07:35.876Z,21.70
2022-08-26T22:10:02.971Z,29.53
2022-08-26T22:12:32.124Z,24.10
2022-08-26T22:14:59.425Z,21.40
2022-08-26T22:17:27.459Z,30.13
2022-08-26T22:19:55.242Z,27.83
2022-08-26T22:22:28.935Z,28.07
2022-08-26T22:24:55.900Z,23.93
2022-08-26T22:27:25.293Z,19.37
2022-08-26T22:29:54.925Z,18.60
2022-08-26T22:32:26.557Z,29.37
2022-08-26T22:34:53.474Z,19.60
2022-08-26T22:37:20.419Z,27.80
2022-08-26T22:39:47.485Z,20.90
2022-08-26T22:42:15.546Z,22.53
2022-08-26T22:44:43.865Z,19.07
2022-08-26T22:47:11.023Z,25.03
2022-08-26T22:49:38.055Z,29.70
2022-08-26T22:52:05.211Z,21.50
2022-08-26T22:54:32.908Z,32.03
2022-08-26T22:57:03.306Z,25.13
2022-08-26T22:59:30.320Z,23.57
2022-08-26T23:02:02.483Z,21.30
2022-08-26T23:04:29.882Z,24.50
2022-08-26T23:06:56.906Z,30.77
2022-08-26T23:09:23.966Z,28.43
2022-08-26T23:11:50.884Z,22.47
2022-08-26T23:14:18.899Z,26.03
2022-08-26T23:16:45.905Z,29.80
2022-08-26T23:19:15.201Z,29.73
2022-08-26T23:21:42.613Z,30.13
2022-08-26T23:24:10.460Z,29.23
2022-08-26T23:26:41.080Z,23.77
2022-08-26T23:29:11.807Z,31.50
2022-08-26T23:31:41.272Z,29.30
2022-08-26T23:34:27.247Z,33.97
2022-08-26T23:36:57.024Z,30.50
2022-08-26T23:39:25.520Z,24.90
2022-08-26T23:41:52.548Z,40.53
2022-08-26T23:44:22.372Z,36.83
2022-08-26T23:46:49.386Z,43.07
2022-08-26T23:49:16.326Z,33.33
2022-08-26T23:52:04.111Z,36.80
2022-08-26T23:54:33.362Z,38.63
2022-08-26T23:57:00.373Z,59.13
2022-08-26T23:59:27.321Z,53.33
